Time;durP1;ratioP1;P1;durP2;ratioP2;P2;SDS_P1;SDS_P2;PMS_P1;PMS_P2;Temp;Humidity;BMP_temperature;BMP_pressure;BME280_temperature;BME280_humidity;BME280_pressure;Samples;Min_cycle;Max_cycle;Signal;HPM_P1;HPM_P2
2021/03/19 00:00:34;;;;;;;4.00;1.90;;;;;;;;;;5059652;28;20888;-73
2021/03/19 00:03:07;;;;;;;3.00;1.63;;;;;;;;;;5058922;28;20723;-73
2021/03/19 00:05:34;;;;;;;3.90;2.07;;;;;;;;;;5058926;28;20457;-73
2021/03/19 00:08:01;;;;;;;8.50;1.60;;;;;;;;;;5059085;28;20532;-74
2021/03/19 00:10:30;;;;;;;4.37;1.87;;;;;;;;;;5060385;28;20461;-73
2021/03/19 00:13:02;;;;;;;3.87;2.70;;;;;;;;;;5059531;28;20548;-73
2021/03/19 00:15:32;;;;;;;4.37;1.93;;;;;;;;;;5059816;28;20504;-73
2021/03/19 00:18:00;;;;;;;2.20;1.43;;;;;;;;;;5061201;28;20535;-73
2021/03/19 00:20:27;;;;;;;2.53;1.40;;;;;;;;;;5062581;28;20461;-73
2021/03/19 00:22:55;;;;;;;3.20;2.00;;;;;;;;;;5058061;28;20476;-73
2021/03/19 00:25:22;;;;;;;3.63;1.93;;;;;;;;;;5058866;28;20522;-73
2021/03/19 00:27:49;;;;;;;2.90;1.63;;;;;;;;;;5059602;28;20920;-73
2021/03/19 00:30:17;;;;;;;2.90;1.63;;;;;;;;;;5058822;28;20458;-73
2021/03/19 00:32:53;;;;;;;3.33;1.87;;;;;;;;;;5059212;28;20461;-73
2021/03/19 00:35:26;;;;;;;4.03;1.97;;;;;;;;;;5058211;28;20926;-74
2021/03/19 00:37:59;;;;;;;3.70;1.63;;;;;;;;;;5058894;28;20465;-73
2021/03/19 00:40:27;;;;;;;9.77;1.30;;;;;;;;;;5059201;28;20462;-72
2021/03/19 00:42:54;;;;;;;2.33;1.40;;;;;;;;;;5057845;28;20458;-73
2021/03/19 00:45:32;;;;;;;2.90;1.53;;;;;;;;;;5058088;28;20489;-73
2021/03/19 00:48:00;;;;;;;3.20;1.73;;;;;;;;;;5058742;28;20501;-73
2021/03/19 00:50:29;;;;;;;1.57;1.13;;;;;;;;;;5059151;28;20489;-72
2021/03/19 00:53:07;;;;;;;7.33;1.50;;;;;;;;;;5059171;28;20476;-73
2021/03/19 00:55:35;;;;;;;2.83;1.27;;;;;;;;;;5058874;28;20922;-73
2021/03/19 00:58:02;;;;;;;2.20;1.40;;;;;;;;;;5057537;28;20461;-72
2021/03/19 01:00:30;;;;;;;2.67;1.70;;;;;;;;;;5058066;28;20465;-71
2021/03/19 01:02:57;;;;;;;5.50;1.83;;;;;;;;;;5057259;28;20466;-72
2021/03/19 01:05:27;;;;;;;2.40;1.70;;;;;;;;;;5057704;28;20454;-72
2021/03/19 01:07:54;;;;;;;2.57;1.57;;;;;;;;;;5076783;28;20495;-72
2021/03/19 01:10:30;;;;;;;6.40;1.63;;;;;;;;;;5078656;28;20461;-72
2021/03/19 01:12:57;;;;;;;2.60;1.50;;;;;;;;;;5078293;28;20464;-72
2021/03/19 01:15:24;;;;;;;3.20;1.87;;;;;;;;;;5078165;28;20453;-73
2021/03/19 01:17:52;;;;;;;2.00;1.30;;;;;;;;;;5078613;28;20469;-72
2021/03/19 01:20:20;;;;;;;3.67;1.73;;;;;;;;;;5078488;28;21116;-72
2021/03/19 01:22:53;;;;;;;4.30;1.37;;;;;;;;;;5078760;28;20475;-72
2021/03/19 01:25:22;;;;;;;4.23;1.03;;;;;;;;;;5075334;28;20507;-72
2021/03/19 01:27:49;;;;;;;5.73;1.70;;;;;;;;;;5058471;28;20473;-72
2021/03/19 01:30:17;;;;;;;2.13;1.10;;;;;;;;;;5059074;28;20472;-72
2021/03/19 01:32:45;;;;;;;3.17;1.67;;;;;;;;;;5058268;28;20467;-73
2021/03/19 01:35:13;;;;;;;4.90;2.20;;;;;;;;;;5057530;28;20885;-72
2021/03/19 01:37:40;;;;;;;2.50;1.10;;;;;;;;;;5057528;28;20462;-72
2021/03/19 01:40:10;;;;;;;2.97;2.00;;;;;;;;;;5057019;28;20461;-72
2021/03/19 01:42:39;;;;;;;2.37;1.37;;;;;;;;;;5056443;28;20465;-72
2021/03/19 01:45:24;;;;;;;1.60;1.00;;;;;;;;;;5057405;28;20480;-72
2021/03/19 01:48:10;;;;;;;5.50;1.50;;;;;;;;;;5062908;28;20467;-72
2021/03/19 01:50:55;;;;;;;1.90;1.20;;;;;;;;;;5077306;28;20457;-73
2021/03/19 01:53:41;;;;;;;4.50;1.40;;;;;;;;;;5077106;28;20471;-72
2021/03/19 01:56:26;;;;;;;2.63;1.13;;;;;;;;;;5066909;28;20467;-73
2021/03/19 01:59:12;;;;;;;3.43;1.40;;;;;;;;;;5056531;28;20457;-73
2021/03/19 02:01:58;;;;;;;3.60;1.90;;;;;;;;;;5055827;28;20476;-72
2021/03/19 02:04:43;;;;;;;2.13;1.33;;;;;;;;;;5056534;28;21049;-72
2021/03/19 02:07:29;;;;;;;2.60;1.30;;;;;;;;;;5056703;28;20527;-72
2021/03/19 02:10:14;;;;;;;4.67;1.63;;;;;;;;;;5056866;28;20481;-72
2021/03/19 02:13:00;;;;;;;4.00;1.20;;;;;;;;;;5056916;28;20473;-72
2021/03/19 02:15:45;;;;;;;5.87;1.90;;;;;;;;;;5076561;28;20464;-72
2021/03/19 02:18:31;;;;;;;2.53;1.23;;;;;;;;;;5077593;28;20523;-72
2021/03/19 02:21:17;;;;;;;3.77;1.40;;;;;;;;;;5074898;28;20886;-72
2021/03/19 02:24:02;;;;;;;2.00;1.27;;;;;;;;;;5077562;28;20478;-72
2021/03/19 02:26:48;;;;;;;4.77;1.30;;;;;;;;;;5077216;28;20868;-72
2021/03/19 02:29:41;;;;;;;5.17;1.77;;;;;;;;;;5076769;28;20488;-72
2021/03/19 02:32:15;;;;;;;2.40;1.10;;;;;;;;;;5077966;28;20467;-72
2021/03/19 02:34:47;;;;;;;2.80;1.50;;;;;;;;;;5076782;28;20897;-72
2021/03/19 02:37:17;;;;;;;2.70;1.10;;;;;;;;;;5060221;28;20472;-72
2021/03/19 02:39:44;;;;;;;4.10;1.40;;;;;;;;;;5060785;28;20472;-72
2021/03/19 02:42:12;;;;;;;4.83;1.17;;;;;;;;;;5060707;28;20571;-72
2021/03/19 02:44:39;;;;;;;5.30;1.53;;;;;;;;;;5060458;28;20464;-73
2021/03/19 02:47:13;;;;;;;2.40;1.20;;;;;;;;;;5060847;28;21091;-72
2021/03/19 02:49:49;;;;;;;2.27;1.70;;;;;;;;;;5060863;28;20490;-71
2021/03/19 02:52:20;;;;;;;5.50;1.33;;;;;;;;;;5059893;28;20472;-71
2021/03/19 02:54:47;;;;;;;2.37;1.20;;;;;;;;;;5060818;28;20461;-71
2021/03/19 02:57:17;;;;;;;3.67;1.43;;;;;;;;;;5060614;28;20464;-71
2021/03/19 02:59:45;;;;;;;5.87;1.83;;;;;;;;;;5060263;28;20449;-71
2021/03/19 03:02:12;;;;;;;4.67;1.30;;;;;;;;;;5060502;28;20487;-71
2021/03/19 03:04:39;;;;;;;2.23;1.20;;;;;;;;;;5060909;28;20915;-71
2021/03/19 03:07:07;;;;;;;2.20;1.20;;;;;;;;;;5059369;28;20484;-72
2021/03/19 03:09:36;;;;;;;1.43;0.90;;;;;;;;;;5059867;28;21111;-72
2021/03/19 03:12:04;;;;;;;2.03;1.43;;;;;;;;;;5059655;28;20469;-72
2021/03/19 03:14:32;;;;;;;1.70;1.27;;;;;;;;;;5059913;28;20752;-72
2021/03/19 03:17:00;;;;;;;2.20;1.13;;;;;;;;;;5061447;28;20476;-72
2021/03/19 03:19:27;;;;;;;2.17;1.40;;;;;;;;;;5060052;28;20476;-72
2021/03/19 03:21:55;;;;;;;2.17;1.43;;;;;;;;;;5060839;28;20457;-72
2021/03/19 03:24:23;;;;;;;2.03;1.20;;;;;;;;;;5074626;28;20452;-72
2021/03/19 03:26:54;;;;;;;7.33;1.43;;;;;;;;;;5079839;28;21025;-72
2021/03/19 03:29:22;;;;;;;2.90;1.20;;;;;;;;;;5080510;28;20491;-72
2021/03/19 03:31:50;;;;;;;4.70;1.70;;;;;;;;;;5080249;28;20474;-72
2021/03/19 03:34:17;;;;;;;2.17;0.97;;;;;;;;;;5079918;28;20455;-72
2021/03/19 03:36:45;;;;;;;1.90;0.97;;;;;;;;;;5080722;28;20467;-72
2021/03/19 03:39:13;;;;;;;2.40;1.10;;;;;;;;;;5060277;28;20461;-72
2021/03/19 03:41:42;;;;;;;1.60;1.07;;;;;;;;;;5060865;28;20466;-72
2021/03/19 03:44:13;;;;;;;2.80;1.40;;;;;;;;;;5078044;28;20814;-72
2021/03/19 03:46:40;;;;;;;3.50;1.50;;;;;;;;;;5078751;28;20463;-72
2021/03/19 03:49:07;;;;;;;2.73;1.73;;;;;;;;;;5080240;28;20492;-72
2021/03/19 03:51:35;;;;;;;3.63;1.23;;;;;;;;;;5080125;28;20472;-72
2021/03/19 03:54:02;;;;;;;2.13;1.17;;;;;;;;;;5079230;28;20453;-72
2021/03/19 03:56:29;;;;;;;2.60;1.33;;;;;;;;;;5080102;28;20749;-72
2021/03/19 03:58:58;;;;;;;2.63;1.30;;;;;;;;;;5079416;28;20532;-72
2021/03/19 04:01:25;;;;;;;3.50;1.60;;;;;;;;;;5079670;28;20460;-72
2021/03/19 04:03:53;;;;;;;2.80;1.40;;;;;;;;;;5077906;28;20474;-72
2021/03/19 04:06:21;;;;;;;4.53;2.27;;;;;;;;;;5078592;28;20477;-72
2021/03/19 04:08:48;;;;;;;6.27;2.53;;;;;;;;;;5078627;28;20489;-73
2021/03/19 04:11:16;;;;;;;4.50;2.00;;;;;;;;;;5077506;28;20942;-72
2021/03/19 04:13:46;;;;;;;4.03;1.90;;;;;;;;;;5076902;28;20460;-72
2021/03/19 04:19:06;;;;;;;2.33;1.20;;;;;;;;;;5077926;28;20445;-72
2021/03/19 04:21:33;;;;;;;1.90;1.60;;;;;;;;;;5078175;28;20472;-74
2021/03/19 04:24:00;;;;;;;3.80;2.37;;;;;;;;;;5078371;28;20449;-72
2021/03/19 04:26:32;;;;;;;4.00;1.47;;;;;;;;;;5078022;28;20464;-72
2021/03/19 04:29:00;;;;;;;4.20;1.90;;;;;;;;;;5077859;28;20494;-72
2021/03/19 04:31:29;;;;;;;2.57;2.00;;;;;;;;;;5077593;28;20473;-72
2021/03/19 04:33:56;;;;;;;2.90;1.60;;;;;;;;;;5077009;28;20452;-72
2021/03/19 04:36:40;;;;;;;2.60;1.93;;;;;;;;;;5078157;28;20464;-72
2021/03/19 04:39:10;;;;;;;10.93;2.30;;;;;;;;;;5078226;28;20473;-72
2021/03/19 04:41:37;;;;;;;2.53;1.80;;;;;;;;;;5077745;28;20892;-72
2021/03/19 04:44:05;;;;;;;2.60;1.47;;;;;;;;;;5064654;28;20459;-72
2021/03/19 04:46:33;;;;;;;2.90;2.00;;;;;;;;;;5057545;28;20469;-72
2021/03/19 04:49:03;;;;;;;5.70;2.17;;;;;;;;;;5063677;28;20521;-71
2021/03/19 04:51:31;;;;;;;5.97;3.37;;;;;;;;;;5069325;28;20799;-72
2021/03/19 04:53:59;;;;;;;6.60;2.37;;;;;;;;;;5059418;28;20529;-72
2021/03/19 04:56:26;;;;;;;3.13;2.43;;;;;;;;;;5065622;28;20453;-72
2021/03/19 04:58:54;;;;;;;3.83;2.47;;;;;;;;;;5078164;28;20461;-72
2021/03/19 05:01:25;;;;;;;3.87;2.33;;;;;;;;;;5077344;28;20728;-73
2021/03/19 05:03:54;;;;;;;5.10;2.30;;;;;;;;;;5077714;28;20456;-72
2021/03/19 05:06:21;;;;;;;4.13;1.50;;;;;;;;;;5076472;28;21189;-72
2021/03/19 05:08:49;;;;;;;4.10;2.70;;;;;;;;;;5062849;28;20492;-72
2021/03/19 05:11:16;;;;;;;4.60;3.03;;;;;;;;;;5057727;28;20477;-72
2021/03/19 05:13:44;;;;;;;3.80;2.27;;;;;;;;;;5057817;28;20492;-72
2021/03/19 05:16:12;;;;;;;4.03;2.70;;;;;;;;;;5057810;28;20857;-72
2021/03/19 05:18:39;;;;;;;5.80;2.87;;;;;;;;;;5057264;28;20473;-72
2021/03/19 05:21:07;;;;;;;4.63;3.43;;;;;;;;;;5057551;28;21059;-72
2021/03/19 05:23:35;;;;;;;5.40;3.10;;;;;;;;;;5068450;28;20448;-72
2021/03/19 05:26:03;;;;;;;4.13;1.93;;;;;;;;;;5056847;28;20491;-72
2021/03/19 05:28:30;;;;;;;3.90;2.83;;;;;;;;;;5057597;28;20781;-72
2021/03/19 05:31:00;;;;;;;4.80;3.77;;;;;;;;;;5057410;28;20459;-71
2021/03/19 05:33:28;;;;;;;8.90;3.80;;;;;;;;;;5056840;28;20458;-72
2021/03/19 05:35:56;;;;;;;4.03;2.47;;;;;;;;;;5056801;28;20469;-71
2021/03/19 05:38:24;;;;;;;5.20;4.03;;;;;;;;;;5057646;28;20459;-71
2021/03/19 05:40:52;;;;;;;6.80;3.17;;;;;;;;;;5057504;28;20470;-71
2021/03/19 05:43:27;;;;;;;4.47;3.50;;;;;;;;;;5057043;28;20454;-71
2021/03/19 05:45:55;;;;;;;5.07;3.60;;;;;;;;;;5056393;28;20880;-72
2021/03/19 05:48:24;;;;;;;6.07;3.47;;;;;;;;;;5057482;28;20449;-71
2021/03/19 05:50:52;;;;;;;8.83;3.63;;;;;;;;;;5057303;28;20458;-72
2021/03/19 05:53:20;;;;;;;10.60;4.30;;;;;;;;;;5056563;28;20467;-71
2021/03/19 05:55:48;;;;;;;4.20;3.30;;;;;;;;;;5056750;28;20458;-72
2021/03/19 05:58:23;;;;;;;5.23;4.17;;;;;;;;;;5056274;28;20455;-72
2021/03/19 06:00:54;;;;;;;7.40;3.57;;;;;;;;;;5056632;28;20463;-73
2021/03/19 06:03:22;;;;;;;5.20;3.93;;;;;;;;;;5056861;28;20468;-73
2021/03/19 06:06:05;;;;;;;6.00;4.00;;;;;;;;;;5056348;28;20479;-73
2021/03/19 06:08:33;;;;;;;5.00;2.97;;;;;;;;;;5056745;28;20482;-72
2021/03/19 06:11:19;;;;;;;5.23;3.70;;;;;;;;;;5056307;28;20884;-72
2021/03/19 06:13:50;;;;;;;4.30;3.00;;;;;;;;;;5055680;28;20542;-72
2021/03/19 06:16:19;;;;;;;6.20;4.90;;;;;;;;;;5056549;28;20543;-73
2021/03/19 06:18:48;;;;;;;5.23;4.17;;;;;;;;;;5056550;28;20470;-72
2021/03/19 06:21:22;;;;;;;6.47;3.00;;;;;;;;;;5055655;28;21083;-72
2021/03/19 06:24:01;;;;;;;8.03;4.43;;;;;;;;;;5055124;28;20456;-72
2021/03/19 06:26:31;;;;;;;7.50;4.57;;;;;;;;;;5055380;28;20456;-72
2021/03/19 06:29:06;;;;;;;4.80;3.40;;;;;;;;;;5055204;28;20761;-72
2021/03/19 06:31:34;;;;;;;7.67;4.90;;;;;;;;;;5055240;28;20475;-72
2021/03/19 06:34:08;;;;;;;7.27;3.43;;;;;;;;;;5055427;28;20462;-72
2021/03/19 06:36:50;;;;;;;6.30;4.97;;;;;;;;;;5056063;28;20469;-72
2021/03/19 06:39:21;;;;;;;8.73;4.60;;;;;;;;;;5054784;28;20473;-72
2021/03/19 06:42:09;;;;;;;7.17;4.67;;;;;;;;;;5054335;28;20522;-72
2021/03/19 06:44:40;;;;;;;8.10;4.40;;;;;;;;;;5029522;28;20456;-72
2021/03/19 06:47:09;;;;;;;6.77;3.93;;;;;;;;;;5053860;28;20597;-72
2021/03/19 06:49:55;;;;;;;5.93;4.83;;;;;;;;;;5054490;28;20975;-71
2021/03/19 06:52:27;;;;;;;5.63;3.87;;;;;;;;;;5054074;28;20466;-72
2021/03/19 06:54:59;;;;;;;10.23;4.57;;;;;;;;;;5054112;28;20468;-71
2021/03/19 06:57:28;;;;;;;6.67;4.27;;;;;;;;;;5054075;28;20462;-71
2021/03/19 06:59:58;;;;;;;7.47;4.80;;;;;;;;;;5055406;28;20548;-71
2021/03/19 07:02:34;;;;;;;6.30;4.13;;;;;;;;;;5053627;28;20826;-71
2021/03/19 07:05:03;;;;;;;5.50;4.33;;;;;;;;;;5055806;28;20462;-72
2021/03/19 07:07:48;;;;;;;7.03;4.03;;;;;;;;;;5055117;28;20477;-71
2021/03/19 07:10:21;;;;;;;8.67;4.10;;;;;;;;;;5054390;28;20929;-72
2021/03/19 07:12:55;;;;;;;5.73;4.27;;;;;;;;;;5055632;28;20462;-73
2021/03/19 07:15:29;;;;;;;12.33;3.53;;;;;;;;;;5055586;28;20460;-72
2021/03/19 07:17:58;;;;;;;5.03;4.00;;;;;;;;;;5055243;28;20518;-72
2021/03/19 07:20:42;;;;;;;7.03;4.70;;;;;;;;;;5058694;28;20468;-72
2021/03/19 07:23:17;;;;;;;8.47;4.80;;;;;;;;;;5058849;28;20480;-73
2021/03/19 07:26:04;;;;;;;6.00;4.67;;;;;;;;;;5059602;28;20460;-73
2021/03/19 07:28:46;;;;;;;6.77;4.87;;;;;;;;;;5064259;28;20457;-73
2021/03/19 07:31:20;;;;;;;10.90;5.57;;;;;;;;;;5078303;28;20478;-72
2021/03/19 07:33:59;;;;;;;6.90;4.10;;;;;;;;;;5078631;28;20456;-73
2021/03/19 07:36:57;;;;;;;6.67;4.13;;;;;;;;;;5078054;28;20467;-72
2021/03/19 07:39:57;;;;;;;8.57;4.83;;;;;;;;;;5007312;28;20460;-73
2021/03/19 07:42:35;;;;;;;6.83;3.90;;;;;;;;;;5057488;28;20603;-73
2021/03/19 07:45:08;;;;;;;10.63;4.53;;;;;;;;;;5057605;28;20464;-73
2021/03/19 07:47:55;;;;;;;7.50;4.43;;;;;;;;;;5058117;28;20461;-73
2021/03/19 07:50:30;;;;;;;7.40;4.40;;;;;;;;;;5057194;28;20572;-73
2021/03/19 07:53:14;;;;;;;7.27;4.40;;;;;;;;;;5057582;28;20842;-73
2021/03/19 07:55:48;;;;;;;9.30;4.57;;;;;;;;;;5061071;28;20462;-72
2021/03/19 07:58:30;;;;;;;8.93;5.10;;;;;;;;;;5064730;28;20540;-74
2021/03/19 08:01:16;;;;;;;8.67;5.10;;;;;;;;;;5076622;28;20570;-73
2021/03/19 08:03:50;;;;;;;6.23;4.30;;;;;;;;;;5077912;28;20491;-74
2021/03/19 08:06:20;;;;;;;8.67;5.37;;;;;;;;;;5077412;28;20461;-73
2021/03/19 08:08:52;;;;;;;9.20;5.93;;;;;;;;;;5065575;28;20586;-73
2021/03/19 08:11:22;;;;;;;7.73;4.70;;;;;;;;;;5058851;28;20915;-73
2021/03/19 08:14:17;;;;;;;8.17;3.80;;;;;;;;;;5058565;28;20466;-73
2021/03/19 08:16:59;;;;;;;9.40;4.67;;;;;;;;;;5064414;28;20742;-72
2021/03/19 08:19:30;;;;;;;9.57;4.03;;;;;;;;;;5078103;28;20473;-72
2021/03/19 08:22:07;;;;;;;8.77;4.60;;;;;;;;;;5076886;28;20457;-72
2021/03/19 08:24:39;;;;;;;6.10;4.30;;;;;;;;;;5076661;28;20470;-72
2021/03/19 08:27:12;;;;;;;9.70;4.80;;;;;;;;;;5070289;28;20474;-72
2021/03/19 08:29:45;;;;;;;9.93;3.17;;;;;;;;;;5056691;28;20490;-72
2021/03/19 08:32:26;;;;;;;5.73;3.50;;;;;;;;;;5070468;28;20496;-72
2021/03/19 08:35:05;;;;;;;9.10;4.10;;;;;;;;;;5077891;28;20524;-71
2021/03/19 08:37:39;;;;;;;9.33;3.93;;;;;;;;;;5075941;28;20480;-71
2021/03/19 08:40:11;;;;;;;6.67;4.37;;;;;;;;;;5075622;28;20856;-72
2021/03/19 08:42:42;;;;;;;4.70;2.30;;;;;;;;;;5076973;28;20473;-73
2021/03/19 08:45:35;;;;;;;6.90;3.40;;;;;;;;;;5077138;28;20449;-72
2021/03/19 08:48:03;;;;;;;4.83;3.23;;;;;;;;;;5066004;28;20467;-73
2021/03/19 08:50:35;;;;;;;3.30;1.90;;;;;;;;;;5057134;28;20906;-72
2021/03/19 08:53:07;;;;;;;4.50;3.40;;;;;;;;;;5057088;28;20486;-72
2021/03/19 08:55:35;;;;;;;3.83;3.00;;;;;;;;;;5057801;28;20456;-72
2021/03/19 08:58:21;;;;;;;6.90;3.47;;;;;;;;;;5057425;28;20535;-73
2021/03/19 09:00:54;;;;;;;4.30;3.50;;;;;;;;;;5056892;28;20479;-72
2021/03/19 09:03:40;;;;;;;5.10;2.80;;;;;;;;;;5056185;28;20689;-72
2021/03/19 09:06:12;;;;;;;5.77;2.50;;;;;;;;;;5071395;28;21031;-71
2021/03/19 09:08:54;;;;;;;6.90;3.10;;;;;;;;;;5074686;28;20781;-72
2021/03/19 09:11:47;;;;;;;3.00;2.50;;;;;;;;;;5075503;28;20704;-73
2021/03/19 09:14:16;;;;;;;2.93;2.10;;;;;;;;;;5068215;28;20533;-72
2021/03/19 09:16:47;;;;;;;5.90;2.40;;;;;;;;;;5096847;28;20514;-74
2021/03/19 09:19:34;;;;;;;5.47;1.80;;;;;;;;;;5094841;28;20716;-72
2021/03/19 09:22:16;;;;;;;4.07;2.40;;;;;;;;;;5064205;28;20511;-73
2021/03/19 09:25:05;;;;;;;5.30;2.57;;;;;;;;;;5068004;28;20461;-75
2021/03/19 09:27:34;;;;;;;3.63;1.80;;;;;;;;;;5058688;28;20895;-73
2021/03/19 09:30:12;;;;;;;10.83;2.30;;;;;;;;;;5062059;28;20490;-73
2021/03/19 09:32:47;;;;;;;2.80;1.67;;;;;;;;;;5070474;28;21078;-73
2021/03/19 09:35:32;;;;;;;3.43;2.00;;;;;;;;;;5074381;28;20469;-73
2021/03/19 09:37:59;;;;;;;3.53;1.80;;;;;;;;;;5066220;28;20458;-72
2021/03/19 09:40:42;;;;;;;3.00;1.90;;;;;;;;;;5063444;28;20464;-73
2021/03/19 09:43:27;;;;;;;3.43;2.50;;;;;;;;;;5056555;28;20485;-72
2021/03/19 09:46:08;;;;;;;3.60;1.80;;;;;;;;;;5056526;28;20462;-71
2021/03/19 09:48:38;;;;;;;7.00;2.07;;;;;;;;;;5054649;28;20479;-72
2021/03/19 09:51:12;;;;;;;3.50;1.97;;;;;;;;;;5065082;28;20467;-74
2021/03/19 09:53:40;;;;;;;3.63;1.70;;;;;;;;;;5068837;28;20472;-72
2021/03/19 09:56:24;;;;;;;3.30;1.97;;;;;;;;;;5076980;28;21032;-73
2021/03/19 09:58:58;;;;;;;4.20;2.17;;;;;;;;;;5066460;28;20447;-74
2021/03/19 10:01:31;;;;;;;3.97;1.83;;;;;;;;;;5076159;28;20453;-74
2021/03/19 10:04:00;;;;;;;4.20;2.27;;;;;;;;;;5062637;28;20450;-73
2021/03/19 10:06:33;;;;;;;3.73;1.80;;;;;;;;;;5055393;28;20452;-73
2021/03/19 10:09:11;;;;;;;3.17;1.93;;;;;;;;;;5057274;28;20487;-74
2021/03/19 10:15:18;;;;;;;3.57;1.43;;;;;;;;;;5054032;28;20452;-75
2021/03/19 10:17:52;;;;;;;5.80;2.10;;;;;;;;;;5036874;28;20558;-73
2021/03/19 10:20:23;;;;;;;3.60;2.17;;;;;;;;;;5056708;28;20501;-73
2021/03/19 10:22:54;;;;;;;4.90;1.73;;;;;;;;;;5054838;28;20510;-73
2021/03/19 10:25:43;;;;;;;3.60;1.60;;;;;;;;;;5055458;28;20453;-73
2021/03/19 10:28:32;;;;;;;2.70;1.47;;;;;;;;;;5056148;28;20904;-73
2021/03/19 10:31:00;;;;;;;3.57;1.80;;;;;;;;;;5056918;28;20461;-73
2021/03/19 10:33:32;;;;;;;4.33;1.60;;;;;;;;;;5055180;28;20467;-72
2021/03/19 10:36:01;;;;;;;12.67;1.80;;;;;;;;;;5056217;28;20466;-71
2021/03/19 10:38:34;;;;;;;6.03;1.93;;;;;;;;;;5068497;28;20897;-72
2021/03/19 10:41:07;;;;;;;3.80;1.97;;;;;;;;;;5075034;28;20469;-72
2021/03/19 10:43:42;;;;;;;3.40;1.47;;;;;;;;;;5073405;28;20751;-72
2021/03/19 10:46:13;;;;;;;6.23;1.90;;;;;;;;;;5071633;28;20854;-72
2021/03/19 10:48:48;;;;;;;5.57;3.50;;;;;;;;;;5073953;28;20745;-72
2021/03/19 10:51:23;;;;;;;3.83;1.80;;;;;;;;;;5067066;28;20865;-73
2021/03/19 10:53:58;;;;;;;5.70;1.40;;;;;;;;;;5064880;28;20527;-73
2021/03/19 10:56:29;;;;;;;3.30;1.73;;;;;;;;;;5061133;28;20477;-73
2021/03/19 10:59:10;;;;;;;5.23;2.50;;;;;;;;;;5078373;28;20479;-73
2021/03/19 11:01:41;;;;;;;3.50;2.00;;;;;;;;;;5079041;28;20627;-72
2021/03/19 11:04:26;;;;;;;3.60;2.10;;;;;;;;;;5076194;28;20713;-73
2021/03/19 11:06:58;;;;;;;4.40;2.03;;;;;;;;;;5058039;28;20468;-71
2021/03/19 11:09:27;;;;;;;4.07;1.33;;;;;;;;;;5059360;28;20476;-73
2021/03/19 11:11:57;;;;;;;3.97;1.60;;;;;;;;;;5059540;28;20453;-75
2021/03/19 11:14:26;;;;;;;3.77;1.80;;;;;;;;;;5058571;28;20463;-73
2021/03/19 11:16:58;;;;;;;3.83;1.87;;;;;;;;;;5059381;28;20863;-73
2021/03/19 11:19:30;;;;;;;4.77;1.67;;;;;;;;;;5058436;28;20890;-73
2021/03/19 11:22:04;;;;;;;3.13;1.70;;;;;;;;;;5057459;28;20508;-73
2021/03/19 11:24:37;;;;;;;4.73;1.60;;;;;;;;;;5059570;28;20532;-74
2021/03/19 11:27:14;;;;;;;3.80;1.93;;;;;;;;;;5075836;28;20522;-73
2021/03/19 11:29:44;;;;;;;3.80;1.80;;;;;;;;;;5064653;28;20535;-72
2021/03/19 11:32:34;;;;;;;5.17;1.80;;;;;;;;;;5062979;28;20527;-73
2021/03/19 11:35:16;;;;;;;3.17;1.97;;;;;;;;;;5057592;28;20481;-73
2021/03/19 11:37:46;;;;;;;3.10;1.60;;;;;;;;;;5059126;28;20537;-72
2021/03/19 11:40:33;;;;;;;5.00;1.80;;;;;;;;;;5058172;28;20466;-72
2021/03/19 11:43:02;;;;;;;6.30;1.80;;;;;;;;;;5057680;28;20884;-73
2021/03/19 11:45:30;;;;;;;3.47;1.67;;;;;;;;;;5059494;28;20568;-73
2021/03/19 11:48:14;;;;;;;4.70;2.17;;;;;;;;;;5058263;28;21121;-72
2021/03/19 11:50:45;;;;;;;4.03;2.03;;;;;;;;;;5068559;28;20478;-72
2021/03/19 11:53:18;;;;;;;6.53;1.80;;;;;;;;;;5071045;28;20487;-75
2021/03/19 11:55:47;;;;;;;3.70;1.53;;;;;;;;;;5067473;28;20570;-74
2021/03/19 11:58:18;;;;;;;4.37;1.23;;;;;;;;;;5056675;28;20474;-73
2021/03/19 12:00:48;;;;;;;4.50;1.73;;;;;;;;;;5060584;28;20464;-73
2021/03/19 12:03:19;;;;;;;2.57;1.27;;;;;;;;;;5058399;28;20465;-73
2021/03/19 12:05:53;;;;;;;3.50;1.50;;;;;;;;;;5060265;28;20565;-74
2021/03/19 12:08:27;;;;;;;3.73;1.37;;;;;;;;;;5067228;28;20505;-74
2021/03/19 12:10:57;;;;;;;4.27;1.97;;;;;;;;;;5068481;28;21048;-74
2021/03/19 12:14:04;;;;;;;4.40;1.53;;;;;;;;;;5081077;28;20463;-74
2021/03/19 12:16:35;;;;;;;4.00;1.37;;;;;;;;;;5066262;28;20471;-73
2021/03/19 12:19:05;;;;;;;4.10;1.67;;;;;;;;;;5077590;28;20484;-72
2021/03/19 12:21:47;;;;;;;3.60;1.80;;;;;;;;;;5078250;28;20548;-72
2021/03/19 12:24:36;;;;;;;4.50;1.80;;;;;;;;;;5070662;28;20591;-72
2021/03/19 12:33:10;;;;;;;4.80;1.90;;;;;;;;;;5063608;28;20448;-72
2021/03/19 12:35:58;;;;;;;4.00;1.80;;;;;;;;;;5062006;28;20454;-72
2021/03/19 12:38:28;;;;;;;4.47;1.70;;;;;;;;;;5082226;28;20467;-73
2021/03/19 12:41:16;;;;;;;;;;;;;;;;;;;;;
2021/03/19 12:43:44;;;;;;;4.13;1.60;;;;;;;;;;5061000;28;21218;-73
2021/03/19 12:49:12;;;;;;;4.40;1.93;;;;;;;;;;5055655;28;20516;-72
2021/03/19 12:51:40;;;;;;;3.87;1.60;;;;;;;;;;5056420;28;20476;-73
2021/03/19 12:54:21;;;;;;;5.47;1.50;;;;;;;;;;5059046;28;20491;-74
2021/03/19 12:57:12;;;;;;;7.13;2.10;;;;;;;;;;5046349;28;20471;-73
2021/03/19 12:59:40;;;;;;;4.37;1.47;;;;;;;;;;5066920;28;20617;-73
2021/03/19 13:02:11;;;;;;;6.73;1.63;;;;;;;;;;5070934;28;20498;-72
2021/03/19 13:07:39;;;;;;;3.53;1.73;;;;;;;;;;5068350;28;20757;-73
2021/03/19 13:10:14;;;;;;;3.47;1.30;;;;;;;;;;5064201;28;20496;-75
2021/03/19 13:12:57;;;;;;;3.20;1.33;;;;;;;;;;5075790;28;20495;-74
2021/03/19 13:18:13;;;;;;;4.20;1.37;;;;;;;;;;5010406;28;20889;-72
2021/03/19 13:20:40;;;;;;;4.90;1.20;;;;;;;;;;5075947;28;20447;-72
2021/03/19 13:23:09;;;;;;;2.53;1.20;;;;;;;;;;5076483;28;20464;-72
2021/03/19 13:25:41;;;;;;;2.47;1.00;;;;;;;;;;5071195;28;20477;-72
2021/03/19 13:28:16;;;;;;;2.63;1.10;;;;;;;;;;5061448;28;20462;-73
2021/03/19 13:30:44;;;;;;;2.13;0.87;;;;;;;;;;5064253;28;20484;-72
2021/03/19 13:33:11;;;;;;;3.87;1.43;;;;;;;;;;5077703;28;20455;-73
2021/03/19 13:35:41;;;;;;;2.20;0.80;;;;;;;;;;5077485;28;20486;-72
2021/03/19 13:38:12;;;;;;;3.40;1.57;;;;;;;;;;5074943;28;20538;-72
2021/03/19 13:40:40;;;;;;;3.20;1.33;;;;;;;;;;5057314;28;20477;-74
2021/03/19 13:43:11;;;;;;;4.70;1.97;;;;;;;;;;5058180;28;20460;-74
2021/03/19 13:45:42;;;;;;;2.30;0.80;;;;;;;;;;5058486;28;20463;-74
2021/03/19 13:50:52;;;;;;;5.60;1.73;;;;;;;;;;5046543;28;20921;-74
2021/03/19 13:53:38;;;;;;;2.83;1.10;;;;;;;;;;5058829;28;20965;-73
2021/03/19 13:59:00;;;;;;;4.60;2.10;;;;;;;;;;5060443;28;20507;-73
2021/03/19 14:10:45;;;;;;;4.93;1.10;;;;;;;;;;5036522;28;20472;-73
2021/03/19 14:13:20;;;;;;;5.30;2.27;;;;;;;;;;5074891;28;20458;-74
2021/03/19 14:16:11;;;;;;;5.40;1.33;;;;;;;;;;5070783;28;20556;-73
2021/03/19 14:18:50;;;;;;;3.10;1.07;;;;;;;;;;5070995;28;20449;-73
2021/03/19 14:21:52;;;;;;;;;;;;;;;;;;;;;
2021/03/19 14:24:32;;;;;;;3.03;1.40;;;;;;;;;;5060330;28;20908;-73
2021/03/19 14:27:06;;;;;;;2.40;1.10;;;;;;;;;;5061427;28;20478;-73
2021/03/19 14:29:59;;;;;;;2.20;1.00;;;;;;;;;;5064627;28;20643;-73
2021/03/19 14:35:25;;;;;;;1.93;0.70;;;;;;;;;;5064861;28;20481;-73
2021/03/19 14:43:48;;;;;;;3.40;1.53;;;;;;;;;;5022572;28;20452;-73
2021/03/19 14:46:18;;;;;;;3.20;1.20;;;;;;;;;;5021679;28;20442;-73
2021/03/19 14:48:45;;;;;;;3.03;0.90;;;;;;;;;;5053755;28;20460;-73
2021/03/19 14:51:15;;;;;;;3.23;1.13;;;;;;;;;;5059183;28;20492;-73
2021/03/19 14:53:54;;;;;;;2.00;0.90;;;;;;;;;;5061249;28;20480;-72
2021/03/19 14:56:31;;;;;;;2.13;1.00;;;;;;;;;;5059011;28;20488;-73
2021/03/19 14:59:22;;;;;;;2.63;1.13;;;;;;;;;;5061320;28;20955;-73
2021/03/19 15:01:51;;;;;;;4.10;1.30;;;;;;;;;;5061003;28;21076;-73
2021/03/19 15:04:41;;;;;;;5.43;1.53;;;;;;;;;;5060262;28;20461;-73
2021/03/19 15:07:21;;;;;;;3.23;0.70;;;;;;;;;;5059525;28;20512;-73
2021/03/19 15:09:58;;;;;;;1.87;0.83;;;;;;;;;;5077975;28;20521;-72
2021/03/19 15:12:51;;;;;;;2.83;0.90;;;;;;;;;;5079105;28;20444;-75
2021/03/19 15:15:47;;;;;;;2.80;1.13;;;;;;;;;;5074834;28;20452;-73
2021/03/19 15:18:42;;;;;;;2.00;0.90;;;;;;;;;;5078222;28;20815;-74
2021/03/19 15:21:47;;;;;;;2.17;0.80;;;;;;;;;;5066271;28;20544;-74
2021/03/19 15:24:19;;;;;;;2.50;1.07;;;;;;;;;;5062022;28;20466;-73
2021/03/19 15:27:01;;;;;;;2.67;0.97;;;;;;;;;;5060676;28;20468;-74
2021/03/19 15:29:59;;;;;;;2.73;1.10;;;;;;;;;;5068067;28;20484;-74
2021/03/19 15:32:28;;;;;;;1.80;0.70;;;;;;;;;;5077213;28;20463;-74
2021/03/19 15:34:56;;;;;;;2.10;0.93;;;;;;;;;;5078810;28;20916;-74
2021/03/19 15:37:36;;;;;;;2.73;1.03;;;;;;;;;;5058725;28;20462;-74
2021/03/19 15:40:06;;;;;;;3.77;1.40;;;;;;;;;;5058356;28;20548;-73
2021/03/19 15:42:34;;;;;;;3.33;0.90;;;;;;;;;;5057567;28;20737;-73
2021/03/19 15:45:10;;;;;;;3.00;1.33;;;;;;;;;;5094688;28;20468;-73
2021/03/19 15:47:44;;;;;;;2.20;0.90;;;;;;;;;;5099090;28;20451;-73
2021/03/19 15:50:19;;;;;;;1.90;1.10;;;;;;;;;;5075783;28;20499;-72
2021/03/19 15:52:51;;;;;;;1.90;0.80;;;;;;;;;;5059893;28;20470;-73
2021/03/19 15:55:32;;;;;;;1.30;0.60;;;;;;;;;;5057479;28;20478;-74
2021/03/19 15:58:21;;;;;;;2.33;1.07;;;;;;;;;;5059531;28;20798;-73
2021/03/19 16:00:49;;;;;;;2.70;1.03;;;;;;;;;;5057545;28;20470;-73
2021/03/19 16:03:17;;;;;;;1.70;0.90;;;;;;;;;;5057231;28;20473;-73
2021/03/19 16:05:48;;;;;;;1.50;0.70;;;;;;;;;;5077273;28;20479;-73
2021/03/19 16:08:37;;;;;;;2.57;1.27;;;;;;;;;;5079655;28;20460;-74
2021/03/19 16:11:10;;;;;;;1.40;0.70;;;;;;;;;;5078088;28;20488;-73